Time;durP1;ratioP1;P1;durP2;ratioP2;P2;SDS_P1;SDS_P2;PMS_P1;PMS_P2;Temp;Humidity;BMP_temperature;BMP_pressure;BME280_temperature;BME280_humidity;BME280_pressure;Samples;Min_cycle;Max_cycle;Signal;HPM_P1;HPM_P2
2021/12/23 00:01:07;;;;;;;33.50;18.70;;;;;;;;;;5011202;28;20033;-71
2021/12/23 00:03:42;;;;;;;32.05;17.63;;;;;;;;;;5011121;28;20041;-70
2021/12/23 00:06:08;;;;;;;34.83;17.75;;;;;;;;;;5014258;28;20472;-70
2021/12/23 00:08:34;;;;;;;39.35;19.17;;;;;;;;;;5014398;28;20044;-70
2021/12/23 00:11:00;;;;;;;35.53;18.63;;;;;;;;;;5014300;28;20111;-71
2021/12/23 00:13:25;;;;;;;42.83;21.65;;;;;;;;;;5012688;28;20112;-71
2021/12/23 00:19:16;;;;;;;41.70;19.65;;;;;;;;;;5014406;28;20037;-69
2021/12/23 00:23:59;;;;;;;37.67;19.95;;;;;;;;;;5013404;28;20049;-69
2021/12/23 00:26:26;;;;;;;39.15;19.95;;;;;;;;;;5014065;28;20042;-70
2021/12/23 00:28:52;;;;;;;40.22;20.23;;;;;;;;;;5013873;28;20042;-70
2021/12/23 00:31:19;;;;;;;41.67;19.88;;;;;;;;;;5013894;28;20049;-70
2021/12/23 00:33:45;;;;;;;35.00;18.45;;;;;;;;;;5013867;28;20504;-69
2021/12/23 00:36:12;;;;;;;39.80;20.40;;;;;;;;;;5014121;28;20030;-70
2021/12/23 00:38:54;;;;;;;38.20;19.05;;;;;;;;;;5012724;28;20041;-70
2021/12/23 00:41:22;;;;;;;40.38;19.60;;;;;;;;;;5013725;28;20511;-70
2021/12/23 00:43:48;;;;;;;39.63;19.83;;;;;;;;;;5012359;28;20042;-69
2021/12/23 00:46:14;;;;;;;43.40;20.52;;;;;;;;;;5013204;28;20037;-70
2021/12/23 00:48:41;;;;;;;36.85;18.90;;;;;;;;;;5011780;28;20579;-69
2021/12/23 00:51:07;;;;;;;39.40;18.98;;;;;;;;;;5012088;28;20041;-70
2021/12/23 00:53:38;;;;;;;35.72;18.80;;;;;;;;;;5012505;28;20037;-69
2021/12/23 00:56:05;;;;;;;39.03;19.83;;;;;;;;;;5012820;28;20048;-70
2021/12/23 00:58:31;;;;;;;36.70;19.83;;;;;;;;;;5012662;28;20037;-70
2021/12/23 01:01:00;;;;;;;41.00;20.30;;;;;;;;;;5011717;28;20037;-70
2021/12/23 01:03:26;;;;;;;39.33;20.42;;;;;;;;;;5013064;28;20376;-69
2021/12/23 01:05:52;;;;;;;41.85;20.70;;;;;;;;;;5010441;28;20042;-70
2021/12/23 01:08:19;;;;;;;45.30;21.55;;;;;;;;;;5013054;28;20545;-69
2021/12/23 01:10:51;;;;;;;41.45;21.08;;;;;;;;;;5013225;28;20046;-69
2021/12/23 01:13:19;;;;;;;43.40;20.77;;;;;;;;;;5012766;28;20488;-70
2021/12/23 01:18:42;;;;;;;44.38;20.17;;;;;;;;;;5017220;28;20030;-70
2021/12/23 01:21:17;;;;;;;41.78;19.60;;;;;;;;;;5013255;28;20053;-69
2021/12/23 01:23:52;;;;;;;39.10;19.17;;;;;;;;;;5012182;28;20038;-69
2021/12/23 01:26:22;;;;;;;40.00;20.50;;;;;;;;;;5013144;28;20045;-70
2021/12/23 01:28:53;;;;;;;41.72;21.35;;;;;;;;;;5011246;28;20053;-69
2021/12/23 01:31:22;;;;;;;41.85;21.00;;;;;;;;;;5012943;28;20053;-69
2021/12/23 01:33:47;;;;;;;43.90;21.77;;;;;;;;;;5010998;28;20037;-70
2021/12/23 01:36:14;;;;;;;42.67;21.25;;;;;;;;;;5012611;28;20121;-70
2021/12/23 01:38:40;;;;;;;46.28;21.27;;;;;;;;;;5012759;28;20040;-71
2021/12/23 01:41:06;;;;;;;43.40;21.10;;;;;;;;;;5012346;28;20033;-71
2021/12/23 01:43:33;;;;;;;45.28;20.90;;;;;;;;;;5011257;28;20037;-71
2021/12/23 01:45:59;;;;;;;38.78;20.45;;;;;;;;;;5012622;28;20411;-71
2021/12/23 01:48:25;;;;;;;42.80;20.70;;;;;;;;;;5012368;28;20042;-71
2021/12/23 01:50:51;;;;;;;43.40;21.17;;;;;;;;;;5012315;28;20037;-70
2021/12/23 01:53:17;;;;;;;46.08;21.00;;;;;;;;;;5010481;28;20054;-71
2021/12/23 01:55:44;;;;;;;45.63;20.35;;;;;;;;;;5011940;28;20053;-71
2021/12/23 01:58:12;;;;;;;38.38;19.50;;;;;;;;;;5011837;28;20042;-71
2021/12/23 02:00:44;;;;;;;39.88;19.70;;;;;;;;;;5011376;28;20049;-71
2021/12/23 02:03:11;;;;;;;42.15;20.85;;;;;;;;;;5011740;28;20045;-70
2021/12/23 02:05:40;;;;;;;39.28;18.85;;;;;;;;;;5011937;28;20041;-70
2021/12/23 02:08:06;;;;;;;43.60;20.65;;;;;;;;;;5011645;28;20037;-70
2021/12/23 02:10:36;;;;;;;44.78;20.60;;;;;;;;;;5011426;28;20069;-70
2021/12/23 02:13:02;;;;;;;40.38;19.98;;;;;;;;;;5009786;28;20049;-71
2021/12/23 02:15:29;;;;;;;35.17;18.98;;;;;;;;;;5011036;28;20053;-70
2021/12/23 02:17:55;;;;;;;39.83;20.15;;;;;;;;;;5010421;28;20025;-71
2021/12/23 02:20:24;;;;;;;36.20;19.15;;;;;;;;;;5010649;28;20042;-70
2021/12/23 02:22:51;;;;;;;42.03;19.35;;;;;;;;;;5011449;28;20037;-71
2021/12/23 02:25:17;;;;;;;39.78;19.80;;;;;;;;;;5009443;28;20057;-71
2021/12/23 02:27:44;;;;;;;45.33;21.70;;;;;;;;;;5011063;28;20022;-71
2021/12/23 02:30:16;;;;;;;41.42;20.35;;;;;;;;;;5010567;28;20046;-71
2021/12/23 02:32:42;;;;;;;42.25;20.88;;;;;;;;;;5010335;28;20033;-71
2021/12/23 02:35:12;;;;;;;39.10;19.35;;;;;;;;;;5010767;28;20038;-71
2021/12/23 02:37:39;;;;;;;39.47;20.45;;;;;;;;;;5010334;28;20408;-71
2021/12/23 02:40:06;;;;;;;41.15;21.13;;;;;;;;;;5008516;28;20034;-71
2021/12/23 02:42:31;;;;;;;39.42;19.00;;;;;;;;;;5008963;28;20053;-71
2021/12/23 02:44:58;;;;;;;36.22;19.17;;;;;;;;;;5011177;28;20116;-71
2021/12/23 02:47:24;;;;;;;40.33;20.23;;;;;;;;;;5011311;28;20042;-69
2021/12/23 02:49:50;;;;;;;36.70;19.08;;;;;;;;;;5011191;28;20049;-71
2021/12/23 02:52:16;;;;;;;42.35;20.10;;;;;;;;;;5011154;28;20041;-71
2021/12/23 02:54:42;;;;;;;37.00;18.85;;;;;;;;;;5010713;28;20395;-71
2021/12/23 02:57:08;;;;;;;40.72;19.70;;;;;;;;;;5010046;28;20053;-71
2021/12/23 02:59:34;;;;;;;40.88;19.63;;;;;;;;;;5009251;28;20088;-71
2021/12/23 03:02:01;;;;;;;37.20;19.38;;;;;;;;;;5010443;28;20125;-71
2021/12/23 03:04:27;;;;;;;36.33;18.17;;;;;;;;;;5010899;28;20475;-71
2021/12/23 03:06:56;;;;;;;40.20;19.85;;;;;;;;;;5010794;28;20049;-71
2021/12/23 03:09:22;;;;;;;36.85;19.77;;;;;;;;;;5011002;28;20515;-70
2021/12/23 03:11:48;;;;;;;36.70;19.83;;;;;;;;;;4993115;28;20045;-70
2021/12/23 03:14:15;;;;;;;39.35;19.55;;;;;;;;;;5010730;28;20480;-70
2021/12/23 03:16:41;;;;;;;36.03;18.73;;;;;;;;;;5011191;28;20046;-70
2021/12/23 03:19:07;;;;;;;38.50;19.38;;;;;;;;;;5010679;28;20369;-70
2021/12/23 03:21:35;;;;;;;39.40;19.42;;;;;;;;;;5009494;28;20022;-70
2021/12/23 03:24:01;;;;;;;39.72;19.33;;;;;;;;;;5010963;28;20496;-70
2021/12/23 03:26:27;;;;;;;36.92;19.17;;;;;;;;;;5010714;28;20514;-70
2021/12/23 03:28:53;;;;;;;36.40;19.95;;;;;;;;;;5010523;28;20120;-70
2021/12/23 03:31:19;;;;;;;38.08;18.85;;;;;;;;;;5010992;28;20140;-70
2021/12/23 03:33:45;;;;;;;37.47;18.13;;;;;;;;;;5010489;28;20060;-69
2021/12/23 03:36:10;;;;;;;38.45;18.80;;;;;;;;;;5010997;28;20464;-70
2021/12/23 03:38:36;;;;;;;38.35;18.70;;;;;;;;;;5010758;28;20053;-70
2021/12/23 03:41:03;;;;;;;36.17;18.60;;;;;;;;;;5011049;28;20060;-70
2021/12/23 03:43:29;;;;;;;38.35;18.23;;;;;;;;;;5008921;28;20049;-70
2021/12/23 03:45:55;;;;;;;40.08;19.73;;;;;;;;;;5010513;28;20034;-70
2021/12/23 03:48:21;;;;;;;37.83;18.10;;;;;;;;;;5010549;28;20038;-70
2021/12/23 03:50:48;;;;;;;36.42;18.67;;;;;;;;;;5010550;28;20080;-71
2021/12/23 03:53:17;;;;;;;37.67;19.95;;;;;;;;;;5010706;28;20033;-71
2021/12/23 03:55:43;;;;;;;38.67;18.52;;;;;;;;;;5010360;28;20484;-71
2021/12/23 03:58:10;;;;;;;38.17;18.60;;;;;;;;;;5010503;28;20053;-71
2021/12/23 04:00:36;;;;;;;38.95;18.73;;;;;;;;;;5009115;28;20041;-71
2021/12/23 04:03:02;;;;;;;39.67;18.67;;;;;;;;;;5010650;28;20038;-71
2021/12/23 04:05:28;;;;;;;40.65;19.67;;;;;;;;;;5010660;28;20042;-71
2021/12/23 04:07:54;;;;;;;41.47;19.42;;;;;;;;;;5010481;28;20033;-71
2021/12/23 04:10:21;;;;;;;48.58;21.08;;;;;;;;;;5010517;28;20080;-70
2021/12/23 04:12:48;;;;;;;42.58;19.75;;;;;;;;;;5010470;28;20364;-70
2021/12/23 04:15:14;;;;;;;41.35;19.90;;;;;;;;;;5010143;28;20050;-70
2021/12/23 04:17:40;;;;;;;38.35;20.23;;;;;;;;;;5010140;28;20045;-70
2021/12/23 04:20:20;;;;;;;42.60;20.50;;;;;;;;;;5009770;28;20050;-70
2021/12/23 04:22:48;;;;;;;41.03;19.80;;;;;;;;;;5009919;28;20053;-70
2021/12/23 04:25:15;;;;;;;35.30;18.90;;;;;;;;;;5009831;28;20038;-70
2021/12/23 04:27:43;;;;;;;41.75;21.35;;;;;;;;;;5010037;28;20034;-70
2021/12/23 04:30:11;;;;;;;39.95;19.92;;;;;;;;;;5010200;28;20042;-70
2021/12/23 04:32:37;;;;;;;46.13;22.40;;;;;;;;;;5008320;28;20432;-70
2021/12/23 04:35:03;;;;;;;46.42;22.88;;;;;;;;;;5009906;28;20046;-70
2021/12/23 04:37:29;;;;;;;42.67;21.10;;;;;;;;;;5009514;28;20060;-70
2021/12/23 04:39:55;;;;;;;43.10;21.27;;;;;;;;;;5009673;28;20034;-70
2021/12/23 04:42:21;;;;;;;54.78;23.35;;;;;;;;;;5011903;28;20038;-70
2021/12/23 04:44:48;;;;;;;50.03;23.80;;;;;;;;;;5013067;28;20129;-70
2021/12/23 04:47:14;;;;;;;57.00;23.15;;;;;;;;;;5013590;28;20034;-70
2021/12/23 04:49:40;;;;;;;53.75;23.77;;;;;;;;;;5012911;28;20048;-71
2021/12/23 04:52:06;;;;;;;49.30;24.58;;;;;;;;;;5011759;28;20117;-70
2021/12/23 04:54:32;;;;;;;52.50;23.52;;;;;;;;;;5011128;28;20048;-70
2021/12/23 04:56:57;;;;;;;54.28;24.15;;;;;;;;;;5011646;28;20125;-70
2021/12/23 04:59:23;;;;;;;55.67;23.98;;;;;;;;;;5012814;28;20122;-70
2021/12/23 05:01:50;;;;;;;59.08;23.45;;;;;;;;;;4988750;28;20034;-70
2021/12/23 05:04:15;;;;;;;53.15;24.35;;;;;;;;;;5013331;28;20042;-70
2021/12/23 05:06:41;;;;;;;47.55;22.13;;;;;;;;;;5013401;28;20126;-70
2021/12/23 05:09:08;;;;;;;55.70;24.83;;;;;;;;;;5014009;28;20524;-70
2021/12/23 05:11:34;;;;;;;51.38;24.27;;;;;;;;;;5013832;28;20038;-70
2021/12/23 05:14:00;;;;;;;53.38;23.27;;;;;;;;;;5013701;28;20042;-70
2021/12/23 05:16:25;;;;;;;51.65;23.50;;;;;;;;;;5012382;28;20042;-70
2021/12/23 05:18:51;;;;;;;57.13;24.60;;;;;;;;;;5013367;28;20120;-71
2021/12/23 05:21:17;;;;;;;51.15;24.52;;;;;;;;;;5013789;28;20100;-70
2021/12/23 05:23:43;;;;;;;54.92;24.75;;;;;;;;;;5013160;28;20116;-70
2021/12/23 05:26:09;;;;;;;53.55;23.38;;;;;;;;;;4995751;28;20554;-70
2021/12/23 05:28:36;;;;;;;56.17;25.35;;;;;;;;;;5006421;28;20113;-70
2021/12/23 05:31:03;;;;;;;54.95;25.60;;;;;;;;;;5005040;28;20041;-70
2021/12/23 05:33:29;;;;;;;54.28;24.25;;;;;;;;;;5003476;28;20045;-69
2021/12/23 05:35:55;;;;;;;51.95;23.98;;;;;;;;;;5003794;28;20034;-70
2021/12/23 05:38:22;;;;;;;56.28;23.70;;;;;;;;;;5001803;28;20512;-69
2021/12/23 05:40:48;;;;;;;47.28;22.38;;;;;;;;;;5002953;28;20045;-70
2021/12/23 05:43:14;;;;;;;48.10;23.10;;;;;;;;;;5001717;28;20039;-70
2021/12/23 05:45:41;;;;;;;50.25;21.80;;;;;;;;;;5003111;28;20029;-69
2021/12/23 05:48:07;;;;;;;49.90;22.60;;;;;;;;;;5001572;28;20034;-69
2021/12/23 05:50:33;;;;;;;48.15;22.27;;;;;;;;;;5001162;28;20408;-71
2021/12/23 05:52:59;;;;;;;46.65;22.27;;;;;;;;;;5003328;28;20036;-70
2021/12/23 05:55:25;;;;;;;50.60;22.95;;;;;;;;;;5002169;28;20125;-71
2021/12/23 05:57:54;;;;;;;50.80;22.38;;;;;;;;;;5001948;28;20045;-71
2021/12/23 06:00:29;;;;;;;52.45;23.50;;;;;;;;;;5000302;28;20469;-70
2021/12/23 06:02:56;;;;;;;51.50;23.30;;;;;;;;;;4990965;28;20579;-70
2021/12/23 06:05:23;;;;;;;45.60;22.92;;;;;;;;;;4993077;28;20054;-70
2021/12/23 06:07:49;;;;;;;46.47;22.70;;;;;;;;;;5001928;28;20040;-71
2021/12/23 06:10:16;;;;;;;51.17;23.63;;;;;;;;;;5010352;28;20056;-70
2021/12/23 06:12:43;;;;;;;46.30;22.58;;;;;;;;;;5008670;28;20038;-69
2021/12/23 06:15:10;;;;;;;51.28;23.45;;;;;;;;;;5003951;28;20045;-70
2021/12/23 06:17:37;;;;;;;53.17;24.55;;;;;;;;;;5007308;28;20042;-70
2021/12/23 06:20:07;;;;;;;49.53;22.02;;;;;;;;;;4997175;28;20504;-70
2021/12/23 06:22:35;;;;;;;50.28;22.55;;;;;;;;;;5007808;28;20053;-70
2021/12/23 06:25:02;;;;;;;50.72;23.75;;;;;;;;;;5007661;28;20484;-70
2021/12/23 06:27:28;;;;;;;51.20;23.95;;;;;;;;;;5011721;28;20061;-70
2021/12/23 06:29:54;;;;;;;58.30;25.15;;;;;;;;;;5011804;28;20109;-70
2021/12/23 06:32:20;;;;;;;52.08;23.85;;;;;;;;;;5006339;28;20103;-70
2021/12/23 06:34:46;;;;;;;52.63;22.52;;;;;;;;;;5008600;28;20049;-70
2021/12/23 06:37:12;;;;;;;48.00;22.05;;;;;;;;;;5011090;28;20124;-70
2021/12/23 06:39:39;;;;;;;52.50;23.63;;;;;;;;;;5011383;28;20045;-70
2021/12/23 06:42:06;;;;;;;54.55;22.50;;;;;;;;;;5008331;28;20514;-70
2021/12/23 06:44:32;;;;;;;50.58;22.55;;;;;;;;;;5009654;28;20049;-70
2021/12/23 06:46:58;;;;;;;50.70;23.38;;;;;;;;;;5005117;28;20049;-70
2021/12/23 06:49:26;;;;;;;58.58;24.40;;;;;;;;;;5009833;28;20042;-70
2021/12/23 06:51:53;;;;;;;64.45;25.02;;;;;;;;;;5011879;28;20042;-70
2021/12/23 06:54:19;;;;;;;52.13;23.20;;;;;;;;;;5011458;28;20053;-70
2021/12/23 06:56:46;;;;;;;55.22;25.23;;;;;;;;;;5011304;28;20030;-70
2021/12/23 06:59:15;;;;;;;59.08;24.85;;;;;;;;;;5004854;28;20038;-70
2021/12/23 07:01:42;;;;;;;58.40;24.65;;;;;;;;;;5008128;28;20037;-70
2021/12/23 07:04:15;;;;;;;54.63;23.67;;;;;;;;;;5005682;28;20049;-70
2021/12/23 07:06:47;;;;;;;56.28;25.10;;;;;;;;;;5010530;28;20254;-69
2021/12/23 07:09:14;;;;;;;59.97;23.88;;;;;;;;;;5010975;28;20037;-71
2021/12/23 07:11:40;;;;;;;57.10;24.10;;;;;;;;;;5010907;28;20048;-71
2021/12/23 07:14:06;;;;;;;60.15;25.75;;;;;;;;;;5010097;28;20037;-71
2021/12/23 07:16:32;;;;;;;67.18;24.30;;;;;;;;;;5011605;28;20112;-71
2021/12/23 07:18:58;;;;;;;53.88;23.50;;;;;;;;;;5011872;28;20041;-71
2021/12/23 07:21:24;;;;;;;76.78;30.70;;;;;;;;;;5011424;28;20113;-71
2021/12/23 07:23:49;;;;;;;82.15;33.95;;;;;;;;;;5011285;28;20482;-71
2021/12/23 07:26:17;;;;;;;66.35;26.75;;;;;;;;;;5011279;28;20064;-71
2021/12/23 07:28:43;;;;;;;76.88;28.02;;;;;;;;;;5009897;28;20046;-71
2021/12/23 07:31:09;;;;;;;72.90;29.27;;;;;;;;;;5009187;28;20038;-71
2021/12/23 07:33:35;;;;;;;71.55;26.30;;;;;;;;;;5010984;28;20032;-71
2021/12/23 07:36:04;;;;;;;63.97;25.27;;;;;;;;;;5010722;28;20559;-71
2021/12/23 07:38:31;;;;;;;69.25;28.10;;;;;;;;;;5010784;28;20036;-70
2021/12/23 07:40:57;;;;;;;74.65;27.27;;;;;;;;;;5010793;28;20042;-71
2021/12/23 07:46:03;;;;;;;71.82;27.55;;;;;;;;;;4998428;28;20033;-71
2021/12/23 07:48:30;;;;;;;63.20;25.50;;;;;;;;;;5010912;28;20050;-71
2021/12/23 07:50:58;;;;;;;79.75;27.45;;;;;;;;;;5010843;28;20029;-71
2021/12/23 07:53:24;;;;;;;68.97;26.63;;;;;;;;;;5010740;28;20030;-72
2021/12/23 07:55:50;;;;;;;66.78;27.83;;;;;;;;;;5009431;28;20045;-71
2021/12/23 07:58:16;;;;;;;70.10;27.30;;;;;;;;;;5010895;28;20037;-71
2021/12/23 08:00:43;;;;;;;66.18;27.15;;;;;;;;;;5010720;28;20042;-71
2021/12/23 08:03:09;;;;;;;88.07;34.50;;;;;;;;;;5009967;28;20045;-71
2021/12/23 08:05:35;;;;;;;100.05;35.08;;;;;;;;;;4994201;28;20365;-71
2021/12/23 08:08:02;;;;;;;77.25;28.98;;;;;;;;;;5003386;28;20057;-71
2021/12/23 08:10:28;;;;;;;67.05;27.20;;;;;;;;;;5009990;28;20049;-71
2021/12/23 08:12:54;;;;;;;77.57;28.73;;;;;;;;;;5017494;28;20153;-71
2021/12/23 08:15:20;;;;;;;82.05;28.85;;;;;;;;;;5014161;28;20125;-70
2021/12/23 08:17:46;;;;;;;81.50;29.02;;;;;;;;;;5015057;28;20108;-70
2021/12/23 08:20:15;;;;;;;77.78;28.67;;;;;;;;;;5003295;28;20045;-70
2021/12/23 08:22:41;;;;;;;73.38;28.33;;;;;;;;;;5007550;28;20045;-71
2021/12/23 08:25:09;;;;;;;72.47;29.58;;;;;;;;;;5012117;28;20029;-71
2021/12/23 08:27:35;;;;;;;83.70;30.67;;;;;;;;;;5011093;28;20041;-71
2021/12/23 08:30:05;;;;;;;75.65;28.92;;;;;;;;;;5006622;28;20037;-71
2021/12/23 08:32:31;;;;;;;75.07;27.13;;;;;;;;;;5009005;28;20396;-71
2021/12/23 08:34:57;;;;;;;83.90;29.27;;;;;;;;;;4996995;28;20072;-72
2021/12/23 08:37:23;;;;;;;75.78;28.73;;;;;;;;;;5009325;28;20124;-71
2021/12/23 08:39:50;;;;;;;72.63;28.45;;;;;;;;;;5011193;28;20049;-71
2021/12/23 08:42:16;;;;;;;67.82;27.45;;;;;;;;;;5011488;28;20053;-72
2021/12/23 08:44:42;;;;;;;86.05;29.15;;;;;;;;;;5010220;28;20033;-72
2021/12/23 08:47:09;;;;;;;78.07;28.48;;;;;;;;;;5009367;28;20048;-72
2021/12/23 08:49:36;;;;;;;74.43;30.02;;;;;;;;;;5010472;28;20045;-72
2021/12/23 08:52:03;;;;;;;85.43;30.60;;;;;;;;;;5010676;28;20049;-72
2021/12/23 08:54:29;;;;;;;83.03;29.67;;;;;;;;;;5011595;28;20422;-72
2021/12/23 08:56:57;;;;;;;77.55;27.08;;;;;;;;;;5010928;28;20042;-72
2021/12/23 08:59:23;;;;;;;78.20;30.70;;;;;;;;;;5012273;28;20030;-72
2021/12/23 09:01:49;;;;;;;74.75;29.20;;;;;;;;;;5009559;28;20046;-72
2021/12/23 09:04:15;;;;;;;79.97;28.88;;;;;;;;;;5007270;28;20134;-72
2021/12/23 09:06:41;;;;;;;88.10;31.00;;;;;;;;;;5007674;28;20037;-72
2021/12/23 09:09:08;;;;;;;83.10;30.90;;;;;;;;;;5012029;28;20100;-71
2021/12/23 09:11:34;;;;;;;85.75;30.48;;;;;;;;;;5011793;28;20046;-71
2021/12/23 09:14:00;;;;;;;73.20;29.30;;;;;;;;;;5012253;28;20030;-71
2021/12/23 09:16:26;;;;;;;83.60;29.75;;;;;;;;;;5008050;28;20492;-71
2021/12/23 09:18:52;;;;;;;85.15;30.23;;;;;;;;;;5009968;28;20047;-71
2021/12/23 09:21:18;;;;;;;75.60;27.02;;;;;;;;;;4993262;28;20053;-71
2021/12/23 09:23:44;;;;;;;81.55;29.10;;;;;;;;;;5007566;28;20030;-70
2021/12/23 09:26:10;;;;;;;78.60;30.35;;;;;;;;;;5012577;28;20046;-70
2021/12/23 09:28:56;;;;;;;78.63;27.52;;;;;;;;;;5012480;28;20046;-70
2021/12/23 09:34:07;;;;;;;73.47;28.45;;;;;;;;;;5011634;28;20030;-70
2021/12/23 09:36:33;;;;;;;65.90;25.45;;;;;;;;;;5009959;28;20041;-70
2021/12/23 09:38:59;;;;;;;70.97;28.13;;;;;;;;;;5010774;28;20540;-70
2021/12/23 09:41:26;;;;;;;71.40;26.92;;;;;;;;;;5011388;28;20396;-70
2021/12/23 09:43:57;;;;;;;69.68;27.33;;;;;;;;;;5011548;28;20038;-72
2021/12/23 09:46:24;;;;;;;70.20;26.60;;;;;;;;;;5013105;28;20061;-72
2021/12/23 09:48:50;;;;;;;69.40;27.80;;;;;;;;;;5012551;28;20480;-72
2021/12/23 09:51:19;;;;;;;74.18;26.95;;;;;;;;;;5012840;28;20053;-72
2021/12/23 09:53:54;;;;;;;71.35;27.92;;;;;;;;;;5012795;28;20049;-72
2021/12/23 09:56:21;;;;;;;67.55;26.67;;;;;;;;;;5012930;28;20049;-72
2021/12/23 09:58:47;;;;;;;56.42;24.33;;;;;;;;;;5012608;28;20044;-72
2021/12/23 10:01:13;;;;;;;65.63;27.33;;;;;;;;;;5012359;28;20037;-72
2021/12/23 10:03:39;;;;;;;64.50;26.85;;;;;;;;;;5012471;28;20034;-72
2021/12/23 10:06:06;;;;;;;61.38;26.13;;;;;;;;;;5012338;28;20038;-72
2021/12/23 10:08:32;;;;;;;63.22;25.40;;;;;;;;;;5012642;28;20042;-73
2021/12/23 10:38:27;;;;;;;59.90;23.98;;;;;;;;;;4992748;28;20038;-71
2021/12/23 10:41:00;;;;;;;58.45;25.70;;;;;;;;;;4992512;28;20049;-72
2021/12/23 10:43:32;;;;;;;54.03;23.77;;;;;;;;;;4992206;28;20034;-72
2021/12/23 10:46:24;;;;;;;59.72;24.65;;;;;;;;;;4990741;28;20042;-70
2021/12/23 10:51:59;;;;;;;57.33;25.65;;;;;;;;;;4992128;28;20473;-71
2021/12/23 11:00:22;;;;;;;53.17;22.73;;;;;;;;;;5014138;28;20042;-71
2021/12/23 11:03:27;;;;;;;61.75;24.85;;;;;;;;;;5010939;28;20495;-71
2021/12/23 11:06:06;;;;;;;53.67;24.02;;;;;;;;;;4993015;28;20046;-72
2021/12/23 11:27:20;;;;;;;59.30;24.23;;;;;;;;;;5010217;28;20396;-71
2021/12/23 11:42:14;;;;;;;55.00;24.52;;;;;;;;;;4989835;28;20029;-72
2021/12/23 11:44:35;;;;;;;61.03;25.75;;;;;;;;;;5001450;28;20214;-72
2021/12/23 11:47:08;;;;;;;59.67;26.80;;;;;;;;;;5010949;28;20025;-72
2021/12/23 11:49:36;;;;;;;52.80;26.23;;;;;;;;;;5011148;28;20053;-72
2021/12/23 11:52:02;;;;;;;53.78;24.35;;;;;;;;;;5014558;28;20049;-72
2021/12/23 11:54:35;;;;;;;55.63;26.15;;;;;;;;;;5014121;28;20041;-71
2021/12/23 11:57:08;;;;;;;59.20;25.10;;;;;;;;;;5012643;28;20053;-74
2021/12/23 11:59:40;;;;;;;58.38;26.38;;;;;;;;;;5014956;28;20057;-72
2021/12/23 12:02:21;;;;;;;57.88;25.60;;;;;;;;;;5013438;28;20026;-71
2021/12/23 12:04:57;;;;;;;60.57;26.80;;;;;;;;;;4995125;28;20417;-72
2021/12/23 12:07:24;;;;;;;56.38;26.48;;;;;;;;;;4994855;28;20046;-71
2021/12/23 12:10:01;;;;;;;57.70;25.95;;;;;;;;;;4992927;28;20057;-71
2021/12/23 12:12:30;;;;;;;61.45;25.65;;;;;;;;;;4994294;28;20424;-71
2021/12/23 12:14:57;;;;;;;62.20;26.30;;;;;;;;;;4994255;28;20034;-71
2021/12/23 12:17:23;;;;;;;58.40;27.85;;;;;;;;;;4994242;28;20213;-71
2021/12/23 12:20:15;;;;;;;58.00;27.52;;;;;;;;;;4994414;28;20078;-71
2021/12/23 12:23:13;;;;;;;53.72;25.35;;;;;;;;;;5014091;28;20523;-71
2021/12/23 12:25:40;;;;;;;53.15;25.42;;;;;;;;;;5014743;28;20076;-71
2021/12/23 12:28:12;;;;;;;55.78;26.70;;;;;;;;;;5014077;28;20053;-71
2021/12/23 12:30:53;;;;;;;50.17;24.50;;;;;;;;;;5014567;28;20468;-71
2021/12/23 12:33:18;;;;;;;53.90;25.63;;;;;;;;;;5014377;28;20041;-71
2021/12/23 12:36:02;;;;;;;58.35;25.38;;;;;;;;;;5009661;28;20416;-71
2021/12/23 12:38:42;;;;;;;53.22;25.80;;;;;;;;;;4995628;28;20042;-71
2021/12/23 12:41:16;;;;;;;50.93;24.67;;;;;;;;;;4994962;28;20042;-72
2021/12/23 12:43:47;;;;;;;53.53;25.63;;;;;;;;;;4995072;28;20038;-72
2021/12/23 12:46:15;;;;;;;;;;;;;;;;;;4995955;28;20038;-73
2021/12/23 12:48:56;;;;;;;53.15;23.50;;;;;;;;;;4993150;28;19913;-72
2021/12/23 12:51:26;;;;;;;54.95;24.17;;;;;;;;;;4994670;28;20039;-73
2021/12/23 12:53:55;;;;;;;55.65;25.77;;;;;;;;;;4994677;28;20034;-73
2021/12/23 12:56:34;;;;;;;57.80;26.08;;;;;;;;;;4994365;28;20411;-73
2021/12/23 12:59:00;;;;;;;53.83;24.48;;;;;;;;;;4994642;28;20038;-72
2021/12/23 13:01:34;;;;;;;46.95;23.20;;;;;;;;;;4993945;28;20054;-73
2021/12/23 13:04:01;;;;;;;55.25;24.90;;;;;;;;;;4993997;28;20042;-71
2021/12/23 13:06:37;;;;;;;51.65;25.38;;;;;;;;;;4994629;28;20038;-73
2021/12/23 13:09:12;;;;;;;54.88;25.92;;;;;;;;;;4994397;28;20042;-73
2021/12/23 13:11:43;;;;;;;55.80;25.83;;;;;;;;;;4994853;28;20034;-71
2021/12/23 13:14:14;;;;;;;52.22;24.42;;;;;;;;;;5011608;28;20034;-73
2021/12/23 13:16:55;;;;;;;53.53;25.17;;;;;;;;;;5013777;28;20383;-71
2021/12/23 13:19:34;;;;;;;52.63;24.70;;;;;;;;;;5013652;28;20056;-73
2021/12/23 13:22:04;;;;;;;50.22;24.48;;;;;;;;;;5013701;28;20050;-72
2021/12/23 13:24:31;;;;;;;46.42;23.75;;;;;;;;;;5013706;28;20407;-73
2021/12/23 13:27:00;;;;;;;52.28;25.00;;;;;;;;;;5013374;28;20038;-73
2021/12/23 13:29:29;;;;;;;51.85;23.92;;;;;;;;;;5013917;28;20045;-73
2021/12/23 13:31:57;;;;;;;55.67;24.73;;;;;;;;;;5013391;28;20046;-73
2021/12/23 13:34:28;;;;;;;53.28;24.73;;;;;;;;;;5012999;28;20038;-73
2021/12/23 13:36:58;;;;;;;53.22;25.90;;;;;;;;;;5013115;28;20038;-72
2021/12/23 13:39:27;;;;;;;48.75;23.63;;;;;;;;;;5012948;28;20030;-73
2021/12/23 13:42:02;;;;;;;48.13;24.05;;;;;;;;;;5012880;28;20040;-73
2021/12/23 13:44:42;;;;;;;51.92;24.65;;;;;;;;;;5012531;28;20042;-73
2021/12/23 13:47:17;;;;;;;48.15;24.13;;;;;;;;;;5011651;28;20064;-72
2021/12/23 13:49:50;;;;;;;48.55;23.88;;;;;;;;;;5013101;28;20042;-73
2021/12/23 13:52:23;;;;;;;47.67;24.50;;;;;;;;;;5012007;28;20046;-73
2021/12/23 13:54:53;;;;;;;53.78;25.27;;;;;;;;;;5013194;28;20034;-72
2021/12/23 13:57:20;;;;;;;50.25;25.05;;;;;;;;;;5013507;28;20033;-72
2021/12/23 13:59:49;;;;;;;48.17;24.38;;;;;;;;;;5013369;28;20472;-72
2021/12/23 14:02:17;;;;;;;49.50;25.35;;;;;;;;;;5013223;28;20049;-72
2021/12/23 14:04:58;;;;;;;50.75;25.20;;;;;;;;;;5012968;28;20025;-73
2021/12/23 14:07:25;;;;;;;54.53;24.60;;;;;;;;;;5012889;28;20496;-72
2021/12/23 14:09:58;;;;;;;50.03;25.48;;;;;;;;;;5012855;28;20048;-71
2021/12/23 14:12:51;;;;;;;51.38;24.65;;;;;;;;;;5012741;28;20484;-72
2021/12/23 14:15:29;;;;;;;52.60;24.35;;;;;;;;;;5012722;28;20034;-71
2021/12/23 14:18:09;;;;;;;48.95;24.20;;;;;;;;;;5012937;28;20225;-72
2021/12/23 14:23:32;;;;;;;52.75;24.98;;;;;;;;;;5018329;28;20026;-73
2021/12/23 14:26:29;;;;;;;50.92;24.40;;;;;;;;;;5012132;28;20045;-72
2021/12/23 14:29:08;;;;;;;57.05;25.23;;;;;;;;;;5012549;28;20048;-72
2021/12/23 14:31:57;;;;;;;56.70;24.80;;;;;;;;;;5012769;28;20046;-72
2021/12/23 14:34:25;;;;;;;57.22;25.00;;;;;;;;;;5011508;28;20484;-72
2021/12/23 14:36:58;;;;;;;62.05;25.73;;;;;;;;;;5011785;28;20053;-72
2021/12/23 14:39:27;;;;;;;51.30;26.48;;;;;;;;;;5012034;28;20038;-72
2021/12/23 14:41:56;;;;;;;54.55;25.85;;;;;;;;;;5012257;28;20038;-72
2021/12/23 14:44:27;;;;;;;49.70;24.58;;;;;;;;;;5012800;28;20044;-72
2021/12/23 14:47:13;;;;;;;49.15;23.85;;;;;;;;;;5012399;28;20483;-72
2021/12/23 14:50:11;;;;;;;54.72;24.27;;;;;;;;;;5012179;28;20038;-72
2021/12/23 14:52:43;;;;;;;50.33;23.92;;;;;;;;;;5012391;28;20042;-72
2021/12/23 14:55:15;;;;;;;272.33;107.72;;;;;;;;;;5012388;28;20062;-72
2021/12/23 14:57:45;;;;;;;75.97;33.47;;;;;;;;;;5011892;28;20053;-72
2021/12/23 15:00:15;;;;;;;45.75;22.85;;;;;;;;;;5011850;28;20038;-72
2021/12/23 15:02:43;;;;;;;49.40;23.92;;;;;;;;;;5011238;28;20042;-73
2021/12/23 15:05:11;;;;;;;48.90;24.92;;;;;;;;;;5000713;22;20050;-72
2021/12/23 15:07:46;;;;;;;46.85;23.30;;;;;;;;;;4991982;28;20034;-73
2021/12/23 15:10:12;;;;;;;53.70;24.40;;;;;;;;;;4991489;28;20043;-72
2021/12/23 15:12:38;;;;;;;55.22;25.48;;;;;;;;;;4992324;28;20397;-72
2021/12/23 15:15:09;;;;;;;65.13;26.77;;;;;;;;;;4991722;28;20050;-72
2021/12/23 15:17:46;;;;;;;52.47;25.52;;;;;;;;;;4991924;28;20049;-72
2021/12/23 15:20:25;;;;;;;50.13;24.38;;;;;;;;;;4991746;28;20042;-72
2021/12/23 15:22:51;;;;;;;54.33;25.88;;;;;;;;;;4991577;28;20038;-72
2021/12/23 15:25:17;;;;;;;50.63;24.60;;;;;;;;;;4991287;28;20053;-72
2021/12/23 15:27:43;;;;;;;52.97;26.40;;;;;;;;;;4991867;28;20057;-72
2021/12/23 15:30:23;;;;;;;54.67;26.73;;;;;;;;;;4991694;28;20031;-72
2021/12/23 15:32:49;;;;;;;53.75;25.92;;;;;;;;;;4991620;28;20046;-72
2021/12/23 15:35:19;;;;;;;56.53;26.67;;;;;;;;;;4991787;28;20480;-72
2021/12/23 15:37:50;;;;;;;53.47;24.77;;;;;;;;;;4991931;28;20054;-72
2021/12/23 15:40:25;;;;;;;55.60;26.60;;;;;;;;;;4991589;28;20126;-72
2021/12/23 15:42:57;;;;;;;56.08;25.15;;;;;;;;;;4988905;28;20057;-72
2021/12/23 15:45:27;;;;;;;50.33;24.10;;;;;;;;;;5005860;28;20061;-72
2021/12/23 15:47:56;;;;;;;53.08;26.30;;;;;;;;;;4990503;28;20039;-72
2021/12/23 15:50:25;;;;;;;84.68;36.13;;;;;;;;;;4990696;28;20049;-72